x

Portland 12 Nm Southeast Of Portland,me (44007) Wave Buoy

5:50 - Mon 28th Jul 2014 All times are EDT. -4 hours from GMT.

  • Sig Wave height 3.6ft
  • Swell Direction
  • Peak Period 6s
  • Average Period 5s
  • Wind
    13mph, 18mph gusts
  • Sea Temp 61°f
  • Luft Temp 65°f
  • Sea Pressure 997.5mb
  • Portland 12 Nm Southeast Of Portland,me
  • Portland 12 Nm Southeast Of Portland,me

More Historic Weather Station data

Upgrade to MSW Pro to gain access to the past 30 days of data for over 8000 Wavebouys and Weather Stations around the globe.

Join Pro

Comparision Forecast

View Surf forecast
   
Mo 07/28 5:50 3.5ft 6s 5s 13 18 mph 997.5mb 61f 65f
4:50 4ft 6s 5s 13 16 mph 997.9mb 61f 66f
3:50 4ft 5s 4s 16 18 mph 998.3mb 61f 66f
2:50 3.5ft 5s 4s 18 22 mph 998.8mb 61f 66f
1:50 3ft 4s 4s 18 20 mph 999.3mb 61f 67f
12:50 2.5ft 8s 4s 18 22 mph 1000mb 61f 66f
11:50 2ft 7s 4s 9 11 mph 1001.2mb 61f 65f
10:50 2.5ft 5s 5s 11
mph
1002.3mb 60f 65f
9:50 2.5ft 5s 4s 9 11 mph 1002.4mb 60f 63f
8:50 2.5ft 5s 5s 7
mph
1003.6mb 59f 63f
7:50 2.5ft 5s 5s 9
mph
1003.9mb 59f 62f
6:50 2.5ft 6s 5s 7 9 mph 1003.9mb 58f 62f
5:50 2.5ft 5s 5s 7
mph
1004.5mb 58f 62f
4:50 2.5ft 6s 5s 7
mph
1004.2mb 59f 63f
3:50 2.5ft 6s 5s 2
mph
1003.5mb 59f 65f
2:50 2.5ft 5s 5s 7
mph
1004.1mb 60f 64f
1:50 3ft 5s 5s 2 4 mph 1004.1mb 60f 65f
12:50 3ft 5s 5s 11
mph
1004.5mb 60f 64f
So 07/27 11:50 2.5ft 5s 5s 2
mph
1004.6mb 60f 63f
10:50 2.5ft 7s 4s 4
mph
1005.1mb 60f 64f
9:50 3.5ft 5s 5s 4
mph
1005.7mb 60f 64f
8:50 3.5ft 5s 4s 9 11 mph 1005.4mb 60f 65f
7:50 4ft 6s 5s 13 18 mph 1005.2mb 60f 65f
6:50 4.5ft 5s 5s 16 20 mph 1005.4mb 60f 65f
5:50 4ft 5s 4s 20 22 mph 1005.1mb 60f 65f
4:50 3.5ft 5s 4s 18 22 mph 1006mb 61f 65f
3:50 3.5ft 5s 4s 16 18 mph 1006.5mb 62f 65f
2:50 3.5ft 4s 4s 16 20 mph 1007mb 62f 65f
1:50 2.5ft 4s 4s 20 22 mph 1007mb 62f 66f
12:50 2.5ft 7s 4s 13 16 mph 1007.6mb 62f 66f
11:50 2.5ft 7s 4s 13 16 mph 1008.1mb 62f 65f
10:50 2.5ft 8s 5s 11
mph
1008.4mb 62f 64f
9:50 2.5ft 7s 5s 16 20 mph 1008.7mb 62f 65f
8:50 2.5ft 8s 4s 13
mph
1009.6mb 62f 64f
7:50 2.5ft 8s 5s 11 13 mph 1009.5mb 62f 64f
6:50 2.5ft 8s 5s 7 9 mph 1009.9mb 62f 64f
5:50 2.5ft 8s 5s 7 9 mph 1010.1mb 62f 64f
4:50 2.5ft 5s 5s 9
mph
1010.1mb 62f 64f
3:50 2.5ft 6s 5s 7
mph
1010.1mb 61f 63f
2:50 2.5ft 6s 5s 7 9 mph 1010.1mb 61f 63f
1:50 2.5ft 6s 5s 7
mph
1010.6mb 61f 64f
12:50 3ft 6s 5s 11
mph
1010.7mb 62f 65f
Sa 07/26 11:50 3ft 5s 5s 11 13 mph 1011mb 62f 66f
10:50 2.5ft 5s 5s 11
mph
1010.9mb 62f 66f
9:50 2.5ft 7s 5s 7 9 mph 1011.2mb 62f 65f
8:50 3ft 5s 5s 11
mph
1010.7mb 62f 66f
7:50 2.5ft 5s 4s 11 13 mph 1010.3mb 63f 67f
6:50 3ft 5s 4s 13 16 mph 1010.6mb 63f 67f
5:50 3ft 4s 4s 18 20 mph 1010.6mb 63f 67f
4:50 2.5ft 4s 4s 18 20 mph 1010.8mb 63f 68f
3:50 2ft 8s 4s 18 20 mph 1011.1mb 63f 68f
2:50 2ft 9s 4s 11 13 mph 1011.8mb 64f 67f
1:50 1.6ft 8s 5s 13 16 mph 1012.2mb 65f 67f
12:50 1.6ft 8s 5s 11 13 mph 1012.4mb 65f 66f
11:50 2ft 8s 5s 9 11 mph 1013.3mb 65f 66f
10:50 2ft 8s 5s 9 11 mph 1013.5mb 65f 65f
9:50 2ft 8s 5s 9 11 mph 1013.9mb 64f 65f
8:50 2ft 9s 5s 11 13 mph 1014mb 64f 65f
7:50 2ft 8s 5s 11 13 mph 1013.9mb 63f 65f
6:50 2ft 9s 5s 9 11 mph 1013.9mb 62f 64f
5:50 1.6ft 9s 5s 7
mph
1013.8mb 62f 64f
4:50 1.6ft 9s 5s 4
mph
1013.7mb 62f 64f
3:50 1.6ft 9s 5s 7 9 mph 1013.5mb 62f 64f
2:50 2ft 10s 5s 9 11 mph 1013.2mb 62f 64f
1:50 2ft 10s 5s 7 9 mph 1013.3mb 63f 66f
12:50 2ft 10s 5s 7 9 mph 1013.6mb 64f 65f
Fr 07/25 11:50 2ft 6s 5s 9 11 mph 1013.6mb 64f 65f
10:50 2ft 7s 5s 9
mph
1013.4mb 64f 65f
9:50 2.5ft 8s 5s 11
mph
1013.2mb 65f 66f
8:50 2.5ft 8s 5s 11 13 mph 1012.8mb 65f 67f
7:50 2ft 9s 4s 11 13 mph 1012.3mb 65f 67f
6:50 2ft 9s 4s 13 16 mph 1012mb 65f 68f
5:50 1.6ft 8s 4s 13 16 mph 1011.7mb 66f 68f
4:50 1.6ft 8s 4s 11 16 mph 1012.1mb 66f 68f
3:50 1.3ft 8s 4s 13 16 mph 1012.4mb 66f 69f
2:50 1.3ft 9s 4s 13 16 mph 1012.4mb 66f 68f
1:50 1.3ft 8s 6s 13 16 mph 1012.6mb 66f 68f
12:50 1.3ft 9s 6s 11 13 mph 1013mb 65f 67f
11:50 1.3ft 10s 7s 11 13 mph 1013.6mb 65f 65f
10:50 1.6ft 7s 7s 9 11 mph 1013.9mb 65f 64f
9:50 1.6ft 7s 7s 4
mph
1013.8mb 65f 63f
8:50 1.6ft 7s 7s 2 4 mph 1013.9mb 64f 62f
7:50 1.6ft 7s 7s 4
mph
1013.9mb 64f 61f
6:50 1.6ft 9s 7s 4 7 mph 1013.7mb 63f 60f
5:50 1.6ft 8s 7s 7 9 mph 1013.2mb 63f 61f
4:50 1.6ft 9s 7s 9 11 mph 1013mb 63f 62f
3:50 1.3ft 9s 7s 7 9 mph 1012.8mb 64f 62f
2:50 1.3ft 8s 7s 9 11 mph 1012.6mb 64f 63f
1:50 1.3ft 10s 7s 11
mph
1012.4mb 64f 64f
12:50 1.3ft 9s 7s 9
mph
1012.4mb 64f 64f
Do 07/24 11:50 1.3ft 9s 6s 4
mph
1012.1mb 64f 64f